Time;durP1;ratioP1;P1;durP2;ratioP2;P2;SDS_P1;SDS_P2;PMS_P1;PMS_P2;Temp;Humidity;BMP_temperature;BMP_pressure;BME280_temperature;BME280_humidity;BME280_pressure;Samples;Min_cycle;Max_cycle;Signal;HPM_P1;HPM_P2
2021/01/04 00:02:07;;;;;;;32.03;20.40;;;1.70;99.90;;;;;;4868057;29;20476;-87
2021/01/04 00:04:54;;;;;;;26.50;18.57;;;1.70;99.90;;;;;;4857320;29;20470;-87
2021/01/04 00:07:40;;;;;;;33.30;21.00;;;1.60;99.90;;;;;;4868480;29;20494;-87
2021/01/04 00:10:12;;;;;;;34.20;20.63;;;1.60;99.90;;;;;;4868929;29;20443;-87
2021/01/04 00:12:48;;;;;;;30.60;20.90;;;1.60;99.90;;;;;;4868154;29;20490;-87
2021/01/04 00:15:23;;;;;;;33.13;20.80;;;1.50;99.90;;;;;;4868713;29;20521;-88
2021/01/04 00:18:32;;;;;;;34.83;22.13;;;1.40;99.90;;;;;;4867629;29;20626;-88
2021/01/04 00:21:23;;;;;;;38.17;23.13;;;1.40;99.90;;;;;;4867119;29;20454;-88
2021/01/04 00:24:08;;;;;;;35.33;23.00;;;1.40;99.90;;;;;;4868522;29;20455;-88
2021/01/04 00:26:34;;;;;;;36.57;23.07;;;1.40;99.90;;;;;;4868161;29;20463;-88
2021/01/04 00:29:00;;;;;;;31.60;20.73;;;1.50;99.90;;;;;;4870053;29;20442;-88
2021/01/04 00:31:37;;;;;;;34.27;21.30;;;1.50;99.90;;;;;;4866820;29;20236;-88
2021/01/04 00:34:25;;;;;;;37.67;23.97;;;1.50;99.90;;;;;;4868823;29;20443;-88
2021/01/04 00:37:09;;;;;;;34.50;23.20;;;1.50;99.90;;;;;;4867176;29;20446;-89
2021/01/04 00:39:37;;;;;;;34.97;21.33;;;1.50;99.90;;;;;;4866785;29;20673;-88
2021/01/04 00:42:31;;;;;;;37.47;23.30;;;1.50;99.90;;;;;;4863849;29;20513;-90
2021/01/04 00:45:11;;;;;;;34.13;22.00;;;1.50;99.90;;;;;;4867727;29;21129;-89
2021/01/04 00:48:04;;;;;;;32.73;22.23;;;1.50;99.90;;;;;;4859921;29;20501;-89
2021/01/04 00:50:48;;;;;;;33.67;21.23;;;1.40;99.90;;;;;;4867214;29;20454;-89
2021/01/04 00:53:19;;;;;;;33.50;20.90;;;1.50;99.90;;;;;;4864179;29;20478;-89
2021/01/04 00:56:01;;;;;;;33.50;21.83;;;1.40;99.90;;;;;;4881103;29;20451;-90
2021/01/04 00:59:04;;;;;;;28.37;20.43;;;1.40;99.90;;;;;;4859405;29;20458;-89
2021/01/04 01:01:46;;;;;;;32.17;20.63;;;1.40;99.90;;;;;;4880947;29;20809;-88
2021/01/04 01:04:23;;;;;;;36.60;22.27;;;1.50;99.90;;;;;;4868304;29;20435;-88
2021/01/04 01:07:10;;;;;;;31.50;20.40;;;1.50;99.90;;;;;;4867599;29;21079;-89
2021/01/04 01:09:41;;;;;;;32.23;22.07;;;1.50;99.90;;;;;;4866370;29;20457;-88
2021/01/04 01:12:19;;;;;;;32.27;21.43;;;1.50;99.90;;;;;;4866979;29;20474;-89
2021/01/04 01:15:06;;;;;;;32.30;21.90;;;1.50;99.90;;;;;;4866636;29;20774;-89
2021/01/04 01:17:40;;;;;;;35.87;22.50;;;1.60;99.90;;;;;;4865001;29;20454;-88
2021/01/04 01:20:16;;;;;;;35.33;21.50;;;1.50;99.90;;;;;;4868218;29;20536;-88
2021/01/04 01:22:43;;;;;;;31.80;20.83;;;1.60;99.90;;;;;;4867249;29;20536;-88
2021/01/04 01:25:20;;;;;;;32.20;21.47;;;1.60;99.90;;;;;;4868506;29;20447;-88
2021/01/04 01:28:13;;;;;;;34.93;21.07;;;1.60;99.90;;;;;;4868716;29;20522;-88
2021/01/04 01:31:00;;;;;;;35.07;21.93;;;1.60;99.90;;;;;;4866793;29;20466;-88
2021/01/04 01:34:00;;;;;;;37.33;23.80;;;1.60;99.90;;;;;;4866761;29;20903;-88
2021/01/04 01:36:40;;;;;;;33.67;20.80;;;1.50;99.90;;;;;;4867876;29;20458;-88
2021/01/04 01:39:37;;;;;;;32.80;22.10;;;1.50;99.90;;;;;;4866298;29;20494;-88
2021/01/04 01:42:27;;;;;;;33.17;20.60;;;1.60;99.90;;;;;;4865015;29;20542;-89
2021/01/04 01:45:15;;;;;;;31.60;19.73;;;1.60;99.90;;;;;;4867538;29;20469;-89
2021/01/04 01:47:47;;;;;;;30.50;21.17;;;1.60;99.90;;;;;;4863982;29;20486;-88
2021/01/04 01:50:19;;;;;;;28.97;20.57;;;1.50;99.90;;;;;;4870782;29;20438;-89
2021/01/04 01:53:11;;;;;;;36.07;22.70;;;1.50;99.90;;;;;;4871648;29;20481;-88
2021/01/04 01:55:48;;;;;;;29.57;19.07;;;1.50;99.90;;;;;;4858652;29;20917;-88
2021/01/04 01:58:36;;;;;;;29.27;20.00;;;1.60;99.90;;;;;;4868525;29;20896;-88
2021/01/04 02:01:11;;;;;;;32.73;20.90;;;1.60;99.90;;;;;;4869361;29;20928;-88
2021/01/04 02:03:54;;;;;;;33.67;21.93;;;1.60;99.90;;;;;;4872138;29;20626;-88
2021/01/04 02:07:01;;;;;;;31.50;20.83;;;1.70;99.90;;;;;;4870247;29;20792;-89
2021/01/04 02:09:31;;;;;;;31.13;20.53;;;1.70;99.90;;;;;;4869844;29;20481;-88
2021/01/04 02:12:12;;;;;;;33.00;21.63;;;1.60;99.90;;;;;;4869496;29;20487;-88
2021/01/04 02:15:08;;;;;;;28.17;19.53;;;1.70;99.90;;;;;;4868544;29;20511;-89
2021/01/04 02:17:43;;;;;;;31.87;20.00;;;1.70;99.90;;;;;;4867920;29;20438;-88
2021/01/04 02:20:46;;;;;;;32.13;20.20;;;1.70;99.90;;;;;;4870748;29;20701;-88
2021/01/04 02:23:28;;;;;;;29.27;18.47;;;1.70;99.90;;;;;;4868896;29;20446;-88
2021/01/04 02:25:57;;;;;;;33.47;19.40;;;1.70;99.90;;;;;;4871230;29;20477;-88
2021/01/04 02:28:27;;;;;;;28.23;19.53;;;1.60;99.90;;;;;;4866158;29;20449;-88
2021/01/04 02:30:53;;;;;;;30.23;19.17;;;1.60;99.90;;;;;;4867831;29;20461;-88
2021/01/04 02:33:21;;;;;;;32.00;20.57;;;1.60;99.90;;;;;;4870122;29;20482;-88
2021/01/04 02:35:48;;;;;;;33.67;21.20;;;1.50;99.90;;;;;;4868554;29;20466;-89
2021/01/04 02:38:20;;;;;;;35.70;21.57;;;1.50;99.90;;;;;;4867997;29;20465;-88
2021/01/04 02:40:46;;;;;;;34.30;21.53;;;1.50;99.90;;;;;;4867645;29;20442;-89
2021/01/04 02:43:12;;;;;;;30.70;19.37;;;1.50;99.90;;;;;;4869998;29;20471;-88
2021/01/04 02:45:38;;;;;;;32.40;20.60;;;1.50;99.90;;;;;;4864184;29;20968;-88
2021/01/04 02:48:22;;;;;;;30.60;20.50;;;1.50;99.90;;;;;;4869220;29;20477;-88
2021/01/04 02:51:07;;;;;;;32.33;20.70;;;1.40;99.90;;;;;;4868867;29;20246;-88
2021/01/04 02:53:55;;;;;;;34.60;21.50;;;1.50;99.90;;;;;;4870035;29;20558;-88
2021/01/04 02:56:38;;;;;;;34.57;21.87;;;1.40;99.90;;;;;;4868897;29;20462;-87
2021/01/04 02:59:04;;;;;;;33.30;20.73;;;1.40;99.90;;;;;;4868795;29;21212;-88
2021/01/04 03:01:54;;;;;;;35.70;22.53;;;1.40;99.90;;;;;;4871005;29;20539;-88
2021/01/04 03:04:22;;;;;;;38.50;22.83;;;1.40;99.90;;;;;;4871560;29;20193;-88
2021/01/04 03:07:00;;;;;;;30.47;20.60;;;1.50;99.90;;;;;;4870181;29;20453;-88
2021/01/04 03:09:31;;;;;;;36.20;20.07;;;1.50;99.90;;;;;;4867762;29;20499;-89
2021/01/04 03:11:58;;;;;;;30.43;21.30;;;1.50;99.90;;;;;;4870067;29;20476;-88
2021/01/04 03:14:48;;;;;;;33.57;21.50;;;1.50;99.90;;;;;;4887033;29;20448;-88
2021/01/04 03:17:35;;;;;;;35.67;21.57;;;1.50;99.90;;;;;;4869645;29;20481;-87
2021/01/04 03:20:06;;;;;;;29.87;21.17;;;1.50;99.90;;;;;;4867346;29;20462;-87
2021/01/04 03:22:32;;;;;;;34.90;22.37;;;1.50;99.90;;;;;;4870845;29;20459;-88
2021/01/04 03:24:58;;;;;;;32.37;21.27;;;1.50;99.90;;;;;;4865444;29;20462;-88
2021/01/04 03:27:32;;;;;;;39.07;23.73;;;1.50;99.90;;;;;;4870915;29;20269;-88
2021/01/04 03:29:58;;;;;;;30.90;21.37;;;1.60;99.90;;;;;;4868930;29;20201;-88
2021/01/04 03:32:24;;;;;;;29.17;20.37;;;1.60;99.90;;;;;;4869196;29;20482;-88
2021/01/04 03:34:50;;;;;;;30.00;20.40;;;1.60;99.90;;;;;;4867112;29;20458;-88
2021/01/04 03:37:17;;;;;;;33.20;19.70;;;1.60;99.90;;;;;;4869137;29;20830;-88
2021/01/04 03:39:43;;;;;;;33.73;21.60;;;1.50;99.90;;;;;;4870453;29;20454;-88
2021/01/04 03:42:09;;;;;;;32.90;21.83;;;1.50;99.90;;;;;;4866089;29;20463;-87
2021/01/04 03:44:34;;;;;;;34.13;21.83;;;1.50;99.90;;;;;;4870628;29;20466;-88
2021/01/04 03:47:00;;;;;;;38.30;22.40;;;1.50;99.90;;;;;;4869837;29;20206;-88
2021/01/04 03:49:27;;;;;;;34.10;21.60;;;1.50;99.90;;;;;;4870580;29;20211;-87
2021/01/04 03:51:54;;;;;;;35.27;22.50;;;1.50;99.90;;;;;;4869009;29;20482;-88
2021/01/04 03:54:20;;;;;;;34.60;20.20;;;1.60;99.90;;;;;;4868746;29;20443;-87
2021/01/04 03:56:46;;;;;;;32.20;21.37;;;1.60;99.90;;;;;;4870708;29;20478;-87
2021/01/04 03:59:14;;;;;;;34.37;22.30;;;1.70;99.90;;;;;;4869813;29;22430;-87
2021/01/04 04:01:56;;;;;;;30.97;20.20;;;1.70;99.90;;;;;;4869206;29;20190;-87
2021/01/04 04:04:23;;;;;;;32.43;20.97;;;1.60;99.90;;;;;;4869994;29;20438;-89
2021/01/04 04:06:49;;;;;;;32.17;19.80;;;1.60;99.90;;;;;;4868099;29;20547;-88
2021/01/04 04:09:17;;;;;;;33.03;19.70;;;1.60;99.90;;;;;;4869617;29;20454;-88
2021/01/04 04:11:43;;;;;;;30.77;21.37;;;1.60;99.90;;;;;;4868312;29;20480;-88
2021/01/04 04:14:09;;;;;;;32.00;20.17;;;1.60;99.90;;;;;;4868213;29;20463;-88
2021/01/04 04:16:35;;;;;;;30.03;19.33;;;1.70;99.90;;;;;;4869634;29;20202;-88
2021/01/04 04:19:00;;;;;;;32.07;20.83;;;1.60;99.90;;;;;;4869426;29;20463;-88
2021/01/04 04:21:27;;;;;;;31.87;20.50;;;1.60;99.90;;;;;;4864426;29;20450;-88
2021/01/04 04:23:52;;;;;;;36.13;23.03;;;1.60;99.90;;;;;;4869407;29;20217;-87
2021/01/04 04:26:23;;;;;;;33.43;20.90;;;1.50;99.90;;;;;;4869507;29;20462;-88
2021/01/04 04:28:50;;;;;;;32.90;21.00;;;1.50;99.90;;;;;;4868424;29;20557;-88
2021/01/04 04:31:16;;;;;;;35.87;21.10;;;1.50;99.90;;;;;;4869094;29;20482;-87
2021/01/04 04:33:43;;;;;;;32.20;20.47;;;1.40;99.90;;;;;;4868235;29;20498;-87
2021/01/04 04:36:10;;;;;;;30.70;20.03;;;1.40;99.90;;;;;;4870468;29;20514;-88
2021/01/04 04:38:36;;;;;;;33.23;21.20;;;1.40;99.90;;;;;;4868335;29;20464;-88
2021/01/04 04:41:02;;;;;;;32.83;21.67;;;1.40;99.90;;;;;;4868198;29;20446;-89
2021/01/04 04:43:45;;;;;;;32.13;20.13;;;1.30;99.90;;;;;;4870532;29;20446;-88
2021/01/04 04:46:35;;;;;;;31.53;21.60;;;1.30;99.90;;;;;;4865307;29;20465;-89
2021/01/04 04:49:15;;;;;;;33.43;21.40;;;1.40;99.90;;;;;;4868199;29;20481;-89
2021/01/04 04:52:04;;;;;;;35.23;21.63;;;1.40;99.90;;;;;;4868566;29;21306;-89
2021/01/04 04:54:57;;;;;;;28.53;19.73;;;1.40;99.90;;;;;;4866912;29;20530;-87
2021/01/04 04:57:43;;;;;;;35.30;20.30;;;1.50;99.90;;;;;;4867114;29;21003;-88
2021/01/04 05:00:25;;;;;;;30.40;20.20;;;1.50;99.90;;;;;;4867621;29;20462;-89
2021/01/04 05:03:06;;;;;;;36.20;20.90;;;1.50;99.90;;;;;;4867241;29;20457;-87
2021/01/04 05:05:36;;;;;;;34.70;20.90;;;1.60;99.90;;;;;;4867231;29;20891;-87
2021/01/04 05:08:35;;;;;;;32.33;20.83;;;1.60;99.90;;;;;;4866038;29;20826;-87
2021/01/04 05:11:01;;;;;;;30.57;20.87;;;1.70;99.90;;;;;;4866597;29;20453;-87
2021/01/04 05:13:38;;;;;;;28.77;19.50;;;1.60;99.90;;;;;;4870370;29;20493;-87
2021/01/04 05:16:16;;;;;;;36.20;21.40;;;1.50;99.90;;;;;;4866762;29;20251;-87
2021/01/04 05:19:19;;;;;;;34.77;20.30;;;1.50;99.90;;;;;;4866003;29;20533;-89
2021/01/04 05:22:14;;;;;;;31.43;19.70;;;1.50;99.90;;;;;;4866769;29;20458;-89
2021/01/04 05:24:46;;;;;;;30.73;20.30;;;1.60;99.90;;;;;;4869801;29;20434;-87
2021/01/04 05:27:42;;;;;;;33.63;20.97;;;1.60;99.90;;;;;;4872926;29;20474;-89
2021/01/04 05:30:32;;;;;;;31.50;20.10;;;1.50;99.90;;;;;;4870146;29;20486;-88
2021/01/04 05:33:04;;;;;;;31.43;20.60;;;1.50;99.90;;;;;;4868581;29;20645;-89
2021/01/04 05:35:29;;;;;;;30.37;19.90;;;1.50;99.90;;;;;;4869982;29;20505;-89
2021/01/04 05:38:45;;;;;;;33.40;21.43;;;1.60;99.90;;;;;;4873510;29;20969;-88
2021/01/04 05:41:39;;;;;;;30.53;19.80;;;1.60;99.90;;;;;;4854179;29;20632;-90
2021/01/04 05:44:43;;;;;;;31.17;20.00;;;1.60;99.90;;;;;;4870785;29;20487;-86
2021/01/04 05:50:52;;;;;;;30.13;19.40;;;1.70;99.90;;;;;;4861520;29;20489;-96
2021/01/04 05:53:19;;;;;;;31.60;20.60;;;1.70;99.90;;;;;;4882040;29;20538;-95
2021/01/04 05:55:45;;;;;;;30.30;19.43;;;1.70;99.90;;;;;;4882844;29;20454;-92
2021/01/04 05:58:17;;;;;;;31.53;19.43;;;1.70;99.90;;;;;;4872540;29;20866;-90
2021/01/04 06:00:43;;;;;;;30.07;19.63;;;1.70;99.90;;;;;;4869817;29;20194;-90
2021/01/04 06:03:27;;;;;;;29.77;19.07;;;1.70;99.90;;;;;;4873305;29;21009;-89
2021/01/04 06:05:53;;;;;;;29.40;19.10;;;1.70;99.90;;;;;;4870468;29;20818;-89
2021/01/04 06:08:29;;;;;;;32.70;20.90;;;1.70;99.90;;;;;;4869916;29;20454;-90
2021/01/04 06:11:08;;;;;;;30.73;20.40;;;1.70;99.90;;;;;;4867397;29;20200;-89
2021/01/04 06:13:53;;;;;;;29.47;19.27;;;1.70;99.90;;;;;;4872017;29;20485;-89
2021/01/04 06:16:27;;;;;;;30.70;19.53;;;1.70;99.90;;;;;;4870392;29;20502;-89
2021/01/04 06:18:57;;;;;;;30.07;18.87;;;1.70;99.90;;;;;;4869081;29;20511;-89
2021/01/04 06:21:46;;;;;;;28.57;18.93;;;1.70;99.90;;;;;;4870937;29;20459;-89
2021/01/04 06:24:29;;;;;;;31.10;19.67;;;1.70;99.90;;;;;;4871418;29;20542;-88
2021/01/04 06:26:59;;;;;;;31.43;20.17;;;1.70;99.90;;;;;;4869686;29;20550;-88
2021/01/04 06:29:32;;;;;;;31.47;19.30;;;1.70;99.90;;;;;;4871082;29;20453;-91
2021/01/04 06:31:59;;;;;;;28.70;19.87;;;1.70;99.90;;;;;;4867749;29;20475;-88
2021/01/04 06:34:32;;;;;;;32.60;21.60;;;1.60;99.90;;;;;;4869496;29;20614;-89
2021/01/04 06:37:13;;;;;;;29.67;20.00;;;1.60;99.90;;;;;;4869014;29;20547;-89
2021/01/04 06:39:40;;;;;;;32.40;19.40;;;1.60;99.90;;;;;;4867598;29;20482;-89
2021/01/04 06:42:17;;;;;;;31.87;20.20;;;1.60;99.90;;;;;;4869600;29;20453;-89
2021/01/04 06:44:53;;;;;;;32.90;20.20;;;1.70;99.90;;;;;;4867914;29;20497;-87
2021/01/04 06:47:40;;;;;;;34.13;20.23;;;1.70;99.90;;;;;;4869490;29;20471;-89
2021/01/04 06:50:21;;;;;;;27.53;18.13;;;1.60;99.90;;;;;;4867666;29;20449;-90
2021/01/04 06:53:23;;;;;;;31.03;18.70;;;1.50;99.90;;;;;;4868042;29;20568;-88
2021/01/04 06:56:20;;;;;;;28.80;17.73;;;1.50;99.90;;;;;;4870499;29;20469;-91
2021/01/04 06:59:04;;;;;;;30.53;18.50;;;1.50;99.90;;;;;;4865322;29;20448;-87
2021/01/04 07:01:57;;;;;;;31.03;19.90;;;1.50;99.90;;;;;;4869317;29;20454;-87
2021/01/04 07:05:14;;;;;;;29.93;18.03;;;1.50;99.90;;;;;;4865721;29;20514;-88
2021/01/04 07:08:04;;;;;;;29.63;18.93;;;1.50;99.90;;;;;;4870721;29;20477;-90
2021/01/04 07:10:58;;;;;;;30.93;19.50;;;1.50;99.90;;;;;;4867093;29;20541;-87
2021/01/04 07:14:01;;;;;;;32.33;19.20;;;1.50;99.90;;;;;;4869624;29;20482;-90
2021/01/04 07:16:35;;;;;;;30.47;18.13;;;1.50;99.90;;;;;;4851135;29;20506;-89
2021/01/04 07:19:34;;;;;;;32.43;19.37;;;1.50;99.90;;;;;;4868989;29;20792;-88
2021/01/04 07:22:06;;;;;;;27.40;17.97;;;1.50;99.90;;;;;;4868452;29;20194;-86
2021/01/04 07:24:51;;;;;;;29.70;19.57;;;1.60;99.90;;;;;;4869270;29;21558;-89
2021/01/04 07:27:50;;;;;;;27.70;17.10;;;1.60;99.90;;;;;;4864608;29;20466;-89
2021/01/04 07:30:46;;;;;;;28.10;18.40;;;1.60;99.90;;;;;;4867807;29;20450;-88
2021/01/04 07:33:44;;;;;;;30.30;19.13;;;1.50;99.90;;;;;;4867639;29;20482;-84
2021/01/04 07:36:19;;;;;;;27.93;17.07;;;1.50;99.90;;;;;;4866841;29;20480;-86
2021/01/04 07:39:08;;;;;;;27.70;18.00;;;1.60;99.90;;;;;;4866900;29;20461;-84
2021/01/04 07:42:08;;;;;;;24.63;17.70;;;1.60;99.90;;;;;;4864214;29;20454;-84
2021/01/04 07:44:52;;;;;;;25.63;17.40;;;1.70;99.90;;;;;;4865598;29;20498;-85
2021/01/04 07:47:41;;;;;;;26.13;17.03;;;1.70;99.90;;;;;;4862805;29;20463;-86
2021/01/04 07:50:30;;;;;;;26.80;16.87;;;1.70;99.90;;;;;;4868735;29;20602;-86
2021/01/04 07:53:24;;;;;;;30.27;19.37;;;1.70;99.90;;;;;;4828887;29;20534;-86
2021/01/04 07:55:55;;;;;;;28.37;17.37;;;1.70;99.90;;;;;;4864491;29;20468;-86
2021/01/04 07:58:57;;;;;;;30.77;19.00;;;1.70;99.90;;;;;;4863718;29;21003;-85
2021/01/04 08:02:00;;;;;;;31.63;19.43;;;1.70;99.90;;;;;;4865491;29;20444;-85
2021/01/04 08:04:35;;;;;;;27.13;17.20;;;1.70;99.90;;;;;;4863242;29;20507;-87
2021/01/04 08:07:20;;;;;;;28.70;18.33;;;1.60;99.90;;;;;;4868184;29;20457;-86
2021/01/04 08:10:03;;;;;;;27.77;18.07;;;1.60;99.90;;;;;;4865249;29;21156;-86
2021/01/04 08:12:51;;;;;;;32.20;19.73;;;1.70;99.90;;;;;;4867896;29;20553;-86
2021/01/04 08:15:50;;;;;;;28.63;17.50;;;1.70;99.90;;;;;;4866333;29;20441;-86
2021/01/04 08:18:21;;;;;;;27.80;18.23;;;1.70;99.90;;;;;;4851181;29;20450;-86
2021/01/04 08:21:04;;;;;;;26.87;17.27;;;1.60;99.90;;;;;;4864201;29;20854;-86
2021/01/04 08:24:04;;;;;;;26.10;17.00;;;1.60;99.90;;;;;;4863595;29;20446;-88
2021/01/04 08:26:53;;;;;;;30.40;18.43;;;1.70;99.90;;;;;;4866312;29;20563;-88
2021/01/04 08:29:40;;;;;;;32.10;18.80;;;1.80;99.90;;;;;;4865305;29;21749;-86
2021/01/04 08:35:36;;;;;;;29.47;18.97;;;1.80;99.90;;;;;;4868904;29;20465;-88
2021/01/04 08:38:40;;;;;;;29.33;17.40;;;1.90;99.90;;;;;;4868406;29;20465;-93
2021/01/04 08:42:01;;;;;;;35.10;18.43;;;2.10;99.90;;;;;;4874312;29;20478;-96
2021/01/04 08:44:32;;;;;;;26.90;16.70;;;2.00;99.90;;;;;;4877194;29;20443;-96
2021/01/04 08:53:14;;;;;;;30.37;18.47;;;2.00;99.90;;;;;;4830602;29;20500;-90
2021/01/04 08:55:40;;;;;;;29.67;18.60;;;1.90;99.90;;;;;;4834625;29;21030;-92
2021/01/04 08:58:37;;;;;;;29.43;17.47;;;1.90;99.90;;;;;;4840228;29;20465;-88
2021/01/04 09:01:25;;;;;;;30.30;17.97;;;1.90;99.90;;;;;;4831895;29;20457;-90
2021/01/04 09:04:03;;;;;;;31.50;18.47;;;1.90;99.90;;;;;;4837945;29;20460;-90
2021/01/04 09:06:32;;;;;;;30.63;18.73;;;2.00;99.90;;;;;;4832595;29;20567;-90
2021/01/04 09:09:22;;;;;;;32.47;19.90;;;2.00;99.90;;;;;;4832832;29;20484;-91
2021/01/04 09:12:01;;;;;;;31.60;19.77;;;2.10;99.90;;;;;;4831127;29;20480;-90
2021/01/04 09:14:43;;;;;;;32.87;20.17;;;2.00;99.90;;;;;;4829455;29;20471;-92
2021/01/04 09:17:36;;;;;;;30.57;19.27;;;2.10;99.90;;;;;;4838209;29;20456;-90
2021/01/04 09:20:14;;;;;;;28.93;18.63;;;2.10;99.90;;;;;;4844889;29;20467;-90
2021/01/04 09:22:40;;;;;;;31.83;19.03;;;2.10;99.90;;;;;;4831331;29;21017;-86
2021/01/04 09:25:22;;;;;;;29.87;18.63;;;2.20;99.90;;;;;;4831623;29;20452;-90
2021/01/04 09:27:52;;;;;;;31.13;19.13;;;2.20;99.90;;;;;;4831161;29;20453;-89
2021/01/04 09:30:26;;;;;;;30.60;20.10;;;2.20;99.90;;;;;;4835187;29;20453;-88
2021/01/04 09:33:04;;;;;;;29.67;19.40;;;2.10;99.90;;;;;;4830917;29;21807;-91
2021/01/04 09:35:30;;;;;;;30.30;19.63;;;2.20;99.90;;;;;;4833371;29;20740;-91
2021/01/04 09:38:02;;;;;;;28.77;17.90;;;2.30;99.90;;;;;;4831916;29;21451;-88
2021/01/04 09:40:28;;;;;;;26.67;18.40;;;2.30;99.90;;;;;;4838300;29;20299;-93
2021/01/04 09:43:14;;;;;;;30.80;19.40;;;2.30;99.90;;;;;;4833968;29;20473;-92
2021/01/04 09:45:44;;;;;;;30.83;17.93;;;2.30;99.90;;;;;;4833900;29;20547;-89
2021/01/04 09:48:39;;;;;;;27.00;16.90;;;2.40;99.90;;;;;;4830878;29;20476;-88
2021/01/04 09:51:08;;;;;;;26.97;17.60;;;2.40;99.90;;;;;;4840957;29;20472;-88
2021/01/04 09:53:39;;;;;;;32.47;19.43;;;2.30;99.90;;;;;;4830331;29;20486;-89
2021/01/04 09:56:11;;;;;;;25.27;18.37;;;2.30;99.90;;;;;;4835224;29;21132;-91
2021/01/04 09:58:41;;;;;;;31.20;17.10;;;2.40;99.90;;;;;;4846139;29;20472;-90
2021/01/04 10:01:12;;;;;;;28.50;19.10;;;2.40;99.90;;;;;;4830008;29;20796;-93
2021/01/04 10:03:39;;;;;;;25.33;17.33;;;2.50;99.90;;;;;;4833965;29;20482;-89
2021/01/04 10:06:13;;;;;;;29.50;19.00;;;2.50;99.90;;;;;;4836725;29;20563;-93
2021/01/04 10:08:40;;;;;;;26.40;18.27;;;2.50;99.90;;;;;;4829164;29;20813;-86
2021/01/04 10:11:16;;;;;;;29.07;17.83;;;2.50;99.90;;;;;;4834824;29;21095;-90
2021/01/04 10:13:41;;;;;;;29.50;18.63;;;2.50;99.90;;;;;;4835170;29;20855;-87
2021/01/04 10:16:24;;;;;;;30.20;18.53;;;2.60;99.90;;;;;;4834578;29;20448;-89
2021/01/04 10:19:10;;;;;;;27.40;18.20;;;2.50;99.90;;;;;;4832915;29;20586;-91
2021/01/04 10:25:46;;;;;;;30.53;17.90;;;2.60;99.90;;;;;;4811857;29;20455;-95
2021/01/04 10:28:14;;;;;;;26.67;17.83;;;2.70;99.90;;;;;;4845656;29;20466;-86
2021/01/04 10:30:40;;;;;;;28.63;17.60;;;2.90;99.90;;;;;;4830332;29;20454;-84
2021/01/04 10:33:18;;;;;;;28.43;17.40;;;2.80;99.90;;;;;;4833045;29;20859;-83
2021/01/04 10:35:44;;;;;;;24.83;18.10;;;2.80;99.90;;;;;;4832329;29;20208;-83
2021/01/04 10:38:18;;;;;;;26.23;17.37;;;2.80;99.90;;;;;;4836011;29;20492;-83
2021/01/04 10:40:48;;;;;;;25.70;16.80;;;2.70;99.90;;;;;;4833400;29;21614;-85
2021/01/04 10:43:19;;;;;;;27.20;17.37;;;2.70;99.90;;;;;;4827167;29;20441;-83
2021/01/04 10:45:45;;;;;;;25.30;17.27;;;2.60;99.90;;;;;;4834925;29;20814;-83
2021/01/04 10:48:17;;;;;;;30.80;17.37;;;2.60;99.90;;;;;;4836847;29;20445;-82
2021/01/04 10:50:48;;;;;;;23.10;16.60;;;2.50;99.90;;;;;;4832373;29;20199;-83
2021/01/04 10:53:40;;;;;;;24.83;17.33;;;2.50;99.90;;;;;;4836239;29;20496;-83
2021/01/04 10:56:08;;;;;;;25.23;16.53;;;2.50;99.90;;;;;;4836319;29;20465;-83
2021/01/04 10:59:00;;;;;;;22.10;15.10;;;2.60;99.90;;;;;;4837656;29;20480;-82
2021/01/04 11:01:33;;;;;;;23.80;16.00;;;2.60;99.90;;;;;;4833231;29;20892;-83
2021/01/04 11:04:07;;;;;;;24.63;16.37;;;2.60;99.90;;;;;;4832791;29;20486;-83
2021/01/04 11:06:36;;;;;;;23.37;15.80;;;2.70;99.90;;;;;;4839027;29;21040;-84
2021/01/04 11:09:18;;;;;;;23.83;15.30;;;2.70;99.90;;;;;;4830225;29;20465;-83
2021/01/04 11:11:50;;;;;;;21.87;13.77;;;2.60;99.90;;;;;;4818286;29;20530;-83
2021/01/04 11:14:22;;;;;;;18.43;13.00;;;2.60;99.90;;;;;;4830416;29;20479;-85
2021/01/04 11:16:53;;;;;;;17.90;13.93;;;2.60;99.90;;;;;;4832233;29;20461;-84
2021/01/04 11:19:27;;;;;;;19.27;13.17;;;2.60;99.90;;;;;;4830898;29;20459;-85
2021/01/04 11:21:52;;;;;;;16.70;12.97;;;2.60;99.90;;;;;;4829632;29;20475;-83
2021/01/04 11:24:18;;;;;;;17.47;13.13;;;2.60;99.90;;;;;;4832159;29;20452;-85
2021/01/04 11:26:44;;;;;;;18.07;12.53;;;2.60;99.90;;;;;;4826615;29;20223;-83
2021/01/04 11:29:10;;;;;;;18.17;11.90;;;2.50;99.90;;;;;;4831523;29;20275;-83
2021/01/04 11:31:36;;;;;;;17.40;10.50;;;2.50;99.90;;;;;;4828157;29;20447;-84
2021/01/04 11:34:03;;;;;;;17.10;11.30;;;2.50;99.90;;;;;;4830362;29;20464;-85
2021/01/04 11:36:29;;;;;;;12.37;9.53;;;2.50;99.90;;;;;;4830085;29;20454;-86
2021/01/04 11:38:54;;;;;;;18.63;12.27;;;2.50;99.90;;;;;;4829198;29;20474;-85
2021/01/04 11:41:21;;;;;;;19.73;13.60;;;2.50;99.90;;;;;;4826819;29;20188;-85
2021/01/04 11:43:48;;;;;;;15.73;12.53;;;2.50;99.90;;;;;;4834598;29;20201;-86
2021/01/04 11:46:15;;;;;;;17.30;12.73;;;2.50;99.90;;;;;;4823853;29;20465;-85
2021/01/04 11:48:41;;;;;;;16.87;12.00;;;2.50;99.90;;;;;;4827486;29;20449;-83
2021/01/04 11:51:07;;;;;;;15.93;12.17;;;2.50;99.90;;;;;;4832183;29;20801;-85
2021/01/04 11:53:33;;;;;;;16.77;12.30;;;2.30;99.90;;;;;;4827391;29;20262;-86
2021/01/04 11:55:59;;;;;;;19.50;13.40;;;2.40;99.90;;;;;;4830858;29;20462;-86
2021/01/04 11:58:24;;;;;;;23.27;14.10;;;2.40;99.90;;;;;;4831915;29;20293;-85
2021/01/04 12:00:52;;;;;;;20.50;13.30;;;2.30;99.90;;;;;;4833935;29;20603;-85
2021/01/04 12:03:18;;;;;;;20.00;13.70;;;2.30;99.90;;;;;;4828518;29;20198;-87
2021/01/04 12:05:43;;;;;;;21.97;13.77;;;2.30;99.90;;;;;;4832136;29;20453;-85
2021/01/04 12:08:09;;;;;;;21.77;14.53;;;2.40;99.90;;;;;;4834415;29;20247;-88
2021/01/04 12:10:35;;;;;;;22.60;14.93;;;2.40;99.90;;;;;;4831384;29;20197;-86
2021/01/04 12:13:01;;;;;;;20.43;13.90;;;2.40;99.90;;;;;;4827305;29;20303;-87
2021/01/04 12:15:26;;;;;;;19.57;13.80;;;2.30;99.90;;;;;;4831635;29;20194;-88
2021/01/04 12:17:52;;;;;;;21.53;15.20;;;2.30;99.90;;;;;;4827503;29;20293;-88
2021/01/04 12:20:18;;;;;;;23.10;14.97;;;2.40;99.90;;;;;;4831996;29;20453;-88
2021/01/04 12:22:44;;;;;;;26.40;16.37;;;2.30;99.90;;;;;;4837497;29;20282;-84
2021/01/04 12:25:10;;;;;;;20.57;14.70;;;2.30;99.90;;;;;;4832582;29;21216;-85
2021/01/04 12:27:36;;;;;;;26.30;15.53;;;2.40;99.90;;;;;;4834993;29;20235;-85
2021/01/04 12:30:03;;;;;;;22.40;15.13;;;2.30;99.90;;;;;;4830181;29;20876;-84
2021/01/04 12:32:30;;;;;;;23.10;15.80;;;2.30;99.90;;;;;;4830863;29;20644;-85
2021/01/04 12:34:56;;;;;;;25.10;14.97;;;2.30;99.90;;;;;;4834084;29;21127;-85
2021/01/04 12:37:23;;;;;;;23.43;15.63;;;2.30;99.90;;;;;;4822407;29;21050;-85
2021/01/04 12:39:49;;;;;;;23.47;15.67;;;2.20;99.90;;;;;;4827081;29;20183;-86
2021/01/04 12:42:14;;;;;;;27.83;18.43;;;2.20;99.90;;;;;;4830401;29;20463;-86
2021/01/04 12:44:40;;;;;;;25.17;16.50;;;2.20;99.90;;;;;;4832469;29;20595;-85
2021/01/04 12:47:07;;;;;;;26.50;17.13;;;2.20;99.90;;;;;;4840458;29;20579;-85
2021/01/04 12:49:33;;;;;;;22.60;14.83;;;2.20;99.90;;;;;;4827616;29;20199;-85
2021/01/04 12:51:59;;;;;;;27.03;15.57;;;2.20;99.90;;;;;;4830638;29;20813;-86
2021/01/04 12:54:31;;;;;;;22.87;14.73;;;2.20;99.90;;;;;;4827545;29;20541;-84
2021/01/04 12:57:01;;;;;;;21.40;14.13;;;2.20;99.90;;;;;;4828553;29;20466;-84
2021/01/04 12:59:28;;;;;;;19.57;14.50;;;2.20;99.90;;;;;;4835620;29;20970;-85
2021/01/04 13:01:55;;;;;;;26.93;17.17;;;2.20;99.90;;;;;;4831044;29;20471;-84
2021/01/04 13:04:25;;;;;;;24.83;14.97;;;2.20;99.90;;;;;;4832603;29;20531;-86
2021/01/04 13:06:56;;;;;;;24.00;15.10;;;2.20;99.90;;;;;;4841384;29;20820;-86
2021/01/04 13:09:21;;;;;;;23.00;14.63;;;2.20;99.90;;;;;;4822496;29;20457;-87
2021/01/04 13:11:48;;;;;;;24.60;15.53;;;2.10;99.90;;;;;;4825896;29;20565;-85
2021/01/04 13:14:15;;;;;;;23.40;15.57;;;2.20;99.90;;;;;;4831513;29;20276;-85
2021/01/04 13:16:41;;;;;;;23.07;15.30;;;2.10;99.90;;;;;;4824816;29;20501;-86
2021/01/04 13:19:09;;;;;;;26.80;15.93;;;2.10;99.90;;;;;;4822528;29;20447;-85
2021/01/04 13:21:36;;;;;;;25.33;16.87;;;2.00;99.90;;;;;;4825279;29;20544;-85
2021/01/04 13:24:06;;;;;;;22.93;15.10;;;2.10;99.90;;;;;;4827998;29;20465;-85
2021/01/04 13:26:43;;;;;;;23.20;13.97;;;2.20;99.90;;;;;;4830364;29;20544;-86
2021/01/04 13:29:10;;;;;;;21.43;14.23;;;2.10;99.90;;;;;;4827921;29;20477;-87
2021/01/04 13:31:37;;;;;;;19.60;12.70;;;2.10;99.90;;;;;;4826084;29;20448;-85
2021/01/04 13:34:03;;;;;;;19.57;13.50;;;2.00;99.90;;;;;;4824634;29;20671;-83
2021/01/04 13:36:29;;;;;;;21.90;14.30;;;2.00;99.90;;;;;;4825565;29;21144;-88
2021/01/04 13:38:55;;;;;;;22.67;15.10;;;2.00;99.90;;;;;;4825919;29;20517;-85
2021/01/04 13:41:21;;;;;;;18.90;12.80;;;2.10;99.90;;;;;;4821456;29;20191;-86